createdAt,value
2023-04-02T00:00:18.481Z,20.62
2023-04-02T00:02:57.631Z,20.61
2023-04-02T00:05:52.221Z,20.60
2023-04-02T00:08:28.061Z,20.59
2023-04-02T00:10:59.180Z,20.59
2023-04-02T00:13:34.115Z,20.57
2023-04-02T00:16:04.599Z,20.57
2023-04-02T00:18:35.362Z,20.55
2023-04-02T00:21:11.712Z,20.55
2023-04-02T00:23:43.759Z,20.55
2023-04-02T00:26:30.140Z,20.54
2023-04-02T00:28:58.589Z,20.54
2023-04-02T00:31:27.258Z,20.55
2023-04-02T00:33:55.876Z,20.54
2023-04-02T00:36:27.536Z,20.54
2023-04-02T00:39:00.049Z,20.54
2023-04-02T00:41:32.064Z,20.53
2023-04-02T00:44:01.454Z,20.53
2023-04-02T00:46:34.626Z,20.53
2023-04-02T00:49:09.781Z,20.52
2023-04-02T00:51:41.852Z,20.53
2023-04-02T00:54:15.949Z,20.52
2023-04-02T00:56:46.508Z,20.52
2023-04-02T00:59:23.722Z,20.50
2023-04-02T01:02:01.908Z,20.49
2023-04-02T01:04:36.370Z,20.51
2023-04-02T01:07:08.700Z,20.49
2023-04-02T01:09:54.224Z,20.49
2023-04-02T01:12:41.968Z,20.50
2023-04-02T01:15:19.547Z,20.49
2023-04-02T01:18:05.434Z,20.47
2023-04-02T01:21:08.892Z,20.46
2023-04-02T01:23:47.087Z,20.45
2023-04-02T01:26:31.855Z,20.45
2023-04-02T01:29:09.853Z,20.44
2023-04-02T01:31:39.889Z,20.44
2023-04-02T01:34:10.929Z,20.42
2023-04-02T01:36:44.822Z,20.42
2023-04-02T01:39:24.444Z,20.44
2023-04-02T01:42:00.474Z,20.42
2023-04-02T01:44:34.872Z,20.42
2023-04-02T01:47:08.783Z,20.42
2023-04-02T01:49:36.795Z,20.41
2023-04-02T01:52:04.818Z,20.43
2023-04-02T01:54:33.296Z,20.41
2023-04-02T01:57:01.623Z,20.40
2023-04-02T01:59:33.291Z,20.40
2023-04-02T02:02:04.330Z,20.39
2023-04-02T02:04:35.100Z,20.39
2023-04-02T02:07:04.224Z,20.41
2023-04-02T02:09:36.487Z,20.39
2023-04-02T02:12:05.087Z,20.39
2023-04-02T02:14:34.686Z,20.39
2023-04-02T02:17:04.600Z,20.37
2023-04-02T02:19:37.075Z,20.38
2023-04-02T02:22:11.324Z,20.37
2023-04-02T02:24:40.146Z,20.36
2023-04-02T02:27:38.482Z,20.36
2023-04-02T02:30:15.697Z,20.35
2023-04-02T02:32:51.185Z,20.34
2023-04-02T02:35:24.194Z,20.33
2023-04-02T02:37:58.917Z,20.32
2023-04-02T02:40:31.078Z,20.26
2023-04-02T02:43:02.561Z,20.29
2023-04-02T02:45:38.823Z,20.26
2023-04-02T02:48:11.938Z,20.26
2023-04-02T02:50:41.225Z,20.26
2023-04-02T02:53:18.335Z,20.26
2023-04-02T02:55:52.456Z,20.26
2023-04-02T02:58:26.527Z,20.26
2023-04-02T03:00:56.485Z,20.25
2023-04-02T03:03:28.171Z,20.27
2023-04-02T03:06:01.753Z,20.28
2023-04-02T03:08:37.250Z,20.27
2023-04-02T03:11:12.153Z,20.28
2023-04-02T03:13:47.338Z,20.29
2023-04-02T03:16:21.970Z,20.29
2023-04-02T03:18:55.441Z,20.29
2023-04-02T03:21:29.703Z,20.27
2023-04-02T03:24:02.322Z,20.27
2023-04-02T03:26:35.867Z,20.26
2023-04-02T03:29:09.748Z,20.25
2023-04-02T03:31:43.336Z,20.25
2023-04-02T03:34:17.984Z,20.25
2023-04-02T03:36:53.616Z,20.07
2023-04-02T03:39:28.255Z,19.67
2023-04-02T03:41:59.819Z,19.69
2023-04-02T03:44:32.776Z,19.80
2023-04-02T03:47:06.797Z,19.89
2023-04-02T03:49:39.603Z,19.95
2023-04-02T03:52:11.980Z,19.99
2023-04-02T03:54:40.830Z,20.03
2023-04-02T03:57:30.319Z,20.05
2023-04-02T04:00:06.389Z,20.10
2023-04-02T04:02:44.906Z,20.10
2023-04-02T04:05:29.782Z,20.11
2023-04-02T04:08:02.567Z,20.11
2023-04-02T04:10:32.156Z,20.12
2023-04-02T04:13:05.029Z,20.12
2023-04-02T04:15:37.701Z,20.13
2023-04-02T04:18:19.213Z,20.14
2023-04-02T04:20:56.492Z,20.13
2023-04-02T04:23:30.218Z,20.13
2023-04-02T04:26:01.976Z,20.13
2023-04-02T04:28:38.606Z,20.14
2023-04-02T04:31:18.071Z,20.15
2023-04-02T04:33:54.812Z,20.15
2023-04-02T04:36:28.711Z,20.14
2023-04-02T04:39:01.526Z,20.14
2023-04-02T04:41:34.727Z,20.15
2023-04-02T04:44:07.982Z,20.15
2023-04-02T04:46:41.413Z,20.13
2023-04-02T04:49:17.043Z,20.10
2023-04-02T04:51:49.147Z,20.12
2023-04-02T04:54:18.628Z,20.12
2023-04-02T04:56:49.317Z,20.11
2023-04-02T04:59:23.628Z,20.10
2023-04-02T05:01:57.769Z,20.11
2023-04-02T05:04:33.535Z,20.12
2023-04-02T05:07:07.362Z,20.11
2023-04-02T05:09:39.485Z,20.10
2023-04-02T05:12:18.209Z,20.09
2023-04-02T05:14:52.480Z,20.09
2023-04-02T05:17:25.570Z,20.10
2023-04-02T05:20:00.456Z,20.08
2023-04-02T05:22:37.470Z,20.07
2023-04-02T05:25:18.290Z,20.04
2023-04-02T05:27:53.652Z,20.06
2023-04-02T05:30:40.901Z,20.05
2023-04-02T05:33:21.121Z,20.05
2023-04-02T05:35:55.694Z,20.04
2023-04-02T05:38:27.853Z,20.07
2023-04-02T05:41:01.298Z,20.07
2023-04-02T05:43:32.938Z,20.06
2023-04-02T05:46:15.426Z,20.04
2023-04-02T05:48:45.541Z,20.04
2023-04-02T05:51:20.589Z,20.04
2023-04-02T05:53:56.707Z,20.04
2023-04-02T05:56:29.144Z,20.03
2023-04-02T05:59:01.800Z,20.04
2023-04-02T06:01:40.415Z,20.03
2023-04-02T06:04:17.240Z,20.02
2023-04-02T06:06:54.873Z,20.02
2023-04-02T06:09:31.687Z,20.01
2023-04-02T06:12:09.254Z,19.99
2023-04-02T06:14:37.258Z,19.66
2023-04-02T06:17:05.270Z,19.57
2023-04-02T06:19:36.902Z,19.61
2023-04-02T06:22:17.724Z,19.62
2023-04-02T06:24:48.506Z,19.67
2023-04-02T06:27:20.127Z,19.69
2023-04-02T06:29:53.084Z,19.68
2023-04-02T06:32:25.671Z,19.69
2023-04-02T06:34:53.970Z,19.70
2023-04-02T06:37:31.493Z,19.70
2023-04-02T06:40:00.747Z,19.73
2023-04-02T06:42:32.012Z,19.74
2023-04-02T06:45:00.512Z,19.75
2023-04-02T06:47:33.307Z,19.75
2023-04-02T06:50:09.792Z,19.74
2023-04-02T06:52:45.726Z,19.75
2023-04-02T06:55:31.023Z,19.77
2023-04-02T06:57:59.275Z,19.78
2023-04-02T07:00:31.647Z,19.77
2023-04-02T07:03:02.325Z,19.78
2023-04-02T07:05:30.626Z,19.79
2023-04-02T07:07:59.956Z,19.79
2023-04-02T07:10:27.912Z,19.80
2023-04-02T07:12:55.846Z,19.80
2023-04-02T07:15:25.503Z,19.81
2023-04-02T07:17:54.870Z,19.82
2023-04-02T07:20:29.110Z,19.82
2023-04-02T07:22:57.565Z,19.82
2023-04-02T07:25:29.744Z,19.81
2023-04-02T07:27:58.205Z,19.83
2023-04-02T07:30:26.307Z,19.83
2023-04-02T07:32:54.362Z,19.83
2023-04-02T07:35:22.868Z,19.83
2023-04-02T07:37:53.590Z,19.80
2023-04-02T07:40:24.319Z,19.79
2023-04-02T07:42:53.712Z,19.80
2023-04-02T07:45:21.608Z,19.79
2023-04-02T07:47:49.556Z,19.80
2023-04-02T07:50:18.009Z,19.81
2023-04-02T07:52:46.025Z,19.80
2023-04-02T07:55:16.605Z,19.80
2023-04-02T07:57:50.161Z,19.77
2023-04-02T08:00:20.921Z,19.81
2023-04-02T08:02:49.053Z,19.80
2023-04-02T08:05:19.206Z,19.81
2023-04-02T08:07:54.517Z,19.81
2023-04-02T08:10:22.571Z,19.81
2023-04-02T08:12:50.735Z,19.82
2023-04-02T08:15:20.236Z,19.79
2023-04-02T08:17:48.346Z,19.79
2023-04-02T08:20:19.137Z,19.79
2023-04-02T08:22:47.485Z,19.81
2023-04-02T08:25:15.543Z,19.81
2023-04-02T08:27:43.709Z,19.82
2023-04-02T08:30:13.888Z,19.83
2023-04-02T08:32:43.272Z,19.81
2023-04-02T08:35:13.284Z,19.82
2023-04-02T08:37:41.934Z,19.80
2023-04-02T08:40:22.156Z,19.79
2023-04-02T08:43:03.278Z,19.79
2023-04-02T08:45:45.486Z,19.80
2023-04-02T08:48:16.763Z,19.82
2023-04-02T08:50:45.963Z,19.83
2023-04-02T08:53:19.272Z,19.84
2023-04-02T08:55:55.901Z,19.83
2023-04-02T08:58:33.446Z,19.85
2023-04-02T09:01:04.402Z,19.84
2023-04-02T09:03:37.621Z,19.84
2023-04-02T09:06:09.953Z,19.85
2023-04-02T09:08:38.368Z,19.85
2023-04-02T09:11:09.857Z,19.84
2023-04-02T09:13:47.882Z,19.82
2023-04-02T09:16:18.317Z,19.83
2023-04-02T09:18:48.202Z,19.80
2023-04-02T09:21:31.968Z,19.85
2023-04-02T09:23:59.934Z,19.86
2023-04-02T09:26:30.104Z,19.85
2023-04-02T09:29:06.482Z,19.77
2023-04-02T09:31:41.720Z,19.79
2023-04-02T09:34:32.992Z,19.79
2023-04-02T09:37:08.919Z,19.80
2023-04-02T09:39:36.989Z,19.77
2023-04-02T09:42:09.388Z,19.79
2023-04-02T09:44:37.409Z,19.79
2023-04-02T09:47:07.558Z,19.79
2023-04-02T09:49:41.296Z,19.80
2023-04-02T09:52:21.884Z,19.81
2023-04-02T09:55:18.886Z,19.80
2023-04-02T09:57:48.741Z,19.81
2023-04-02T10:03:04.737Z,19.78
2023-04-02T10:08:18.946Z,19.75
2023-04-02T10:10:50.805Z,19.75
2023-04-02T10:13:24.830Z,19.73
2023-04-02T10:15:58.284Z,19.70
2023-04-02T10:18:38.062Z,19.69
2023-04-02T10:21:09.186Z,19.46
2023-04-02T10:23:37.305Z,19.56
2023-04-02T10:26:36.971Z,19.61
2023-04-02T10:29:43.697Z,19.64
2023-04-02T10:32:17.761Z,19.68
2023-04-02T10:34:54.711Z,19.70
2023-04-02T10:37:49.858Z,19.72
2023-04-02T10:40:22.558Z,19.74
2023-04-02T10:43:00.266Z,19.77
2023-04-02T10:45:41.334Z,19.78
2023-04-02T10:48:21.216Z,19.81
2023-04-02T10:50:54.322Z,19.83
2023-04-02T10:53:33.645Z,19.85
2023-04-02T10:56:10.597Z,19.86
2023-04-02T10:58:45.299Z,19.87
2023-04-02T11:01:18.770Z,19.88
2023-04-02T11:03:53.091Z,19.91
2023-04-02T11:06:25.438Z,19.93
2023-04-02T11:08:58.289Z,19.94
2023-04-02T11:11:30.531Z,19.95
2023-04-02T11:14:04.641Z,19.96
2023-04-02T11:16:33.379Z,19.95
2023-04-02T11:19:26.988Z,19.97
2023-04-02T11:21:59.386Z,19.94
2023-04-02T11:24:43.719Z,19.56
2023-04-02T11:27:19.426Z,19.38
2023-04-02T11:29:50.809Z,19.31
2023-04-02T11:32:32.619Z,19.43
2023-04-02T11:35:30.647Z,19.54
2023-04-02T11:38:00.538Z,19.65
2023-04-02T11:40:54.787Z,19.70
2023-04-02T11:43:52.011Z,19.77
2023-04-02T11:46:48.507Z,19.82
2023-04-02T11:49:57.367Z,19.83
2023-04-02T11:52:29.044Z,19.88
2023-04-02T11:55:00.896Z,19.89
2023-04-02T11:57:59.238Z,19.91
2023-04-02T12:00:50.987Z,19.93
2023-04-02T12:03:43.042Z,19.93
2023-04-02T12:06:20.844Z,19.97
2023-04-02T12:08:58.266Z,19.91
2023-04-02T12:11:34.652Z,19.95
2023-04-02T12:14:28.661Z,19.98
2023-04-02T12:16:57.450Z,20.00
2023-04-02T12:19:26.938Z,20.02
2023-04-02T12:21:56.475Z,20.04
2023-04-02T12:24:31.222Z,20.07
2023-04-02T12:27:15.579Z,20.11
2023-04-02T12:29:45.199Z,19.95
2023-04-02T12:32:22.359Z,19.99
2023-04-02T12:34:52.436Z,20.02
2023-04-02T12:37:26.438Z,20.08
2023-04-02T12:39:57.022Z,20.10
2023-04-02T12:42:29.813Z,20.14
2023-04-02T12:44:59.528Z,19.95
2023-04-02T12:47:27.900Z,19.99
2023-04-02T12:49:57.750Z,20.02
2023-04-02T12:52:29.075Z,20.05
2023-04-02T12:54:59.496Z,20.07
2023-04-02T12:57:40.419Z,20.06
2023-04-02T13:00:36.033Z,20.08
2023-04-02T13:03:19.000Z,20.10
2023-04-02T13:05:52.136Z,20.11
2023-04-02T13:08:23.571Z,20.10
2023-04-02T13:10:57.713Z,20.12
2023-04-02T13:13:30.157Z,20.13
2023-04-02T13:16:04.752Z,20.15
2023-04-02T13:18:34.400Z,20.15
2023-04-02T13:21:04.100Z,20.17
2023-04-02T13:23:37.854Z,20.17
2023-04-02T13:26:17.510Z,20.19
2023-04-02T13:28:57.023Z,20.18
2023-04-02T13:31:26.962Z,20.21
2023-04-02T13:33:54.895Z,20.21
2023-04-02T13:36:22.872Z,20.21
2023-04-02T13:38:51.138Z,20.22
2023-04-02T13:41:23.818Z,20.22
2023-04-02T13:43:51.897Z,20.23
2023-04-02T13:46:23.334Z,20.23
2023-04-02T13:48:54.146Z,20.24
2023-04-02T13:51:24.892Z,20.25
2023-04-02T13:53:56.796Z,20.25
2023-04-02T13:56:24.806Z,20.27
2023-04-02T13:58:53.207Z,20.27
2023-04-02T14:01:23.712Z,20.27
2023-04-02T14:03:54.209Z,20.27
2023-04-02T14:06:31.945Z,20.29
2023-04-02T14:09:05.509Z,20.31
2023-04-02T14:11:52.142Z,20.34
2023-04-02T14:14:43.058Z,20.36
2023-04-02T14:17:23.689Z,20.37
2023-04-02T14:20:13.418Z,20.40
2023-04-02T14:22:55.953Z,20.41
2023-04-02T14:25:34.940Z,20.42
2023-04-02T14:28:10.898Z,20.42
2023-04-02T14:30:48.473Z,20.42
2023-04-02T14:33:30.853Z,20.44
2023-04-02T14:36:05.634Z,20.45
2023-04-02T14:38:42.064Z,20.29
2023-04-02T14:41:16.671Z,20.24
2023-04-02T14:43:51.137Z,20.12
2023-04-02T14:46:19.184Z,19.90
2023-04-02T14:48:54.247Z,19.93
2023-04-02T14:51:32.953Z,20.02
2023-04-02T14:54:08.304Z,20.11
2023-04-02T14:56:41.726Z,20.18
2023-04-02T14:59:27.288Z,20.20
2023-04-02T15:02:01.157Z,20.22
2023-04-02T15:04:34.137Z,20.25
2023-04-02T15:07:08.831Z,20.30
2023-04-02T15:09:41.631Z,20.34
2023-04-02T15:12:14.078Z,20.40
2023-04-02T15:14:46.964Z,20.46
2023-04-02T15:17:15.162Z,20.52
2023-04-02T15:19:43.108Z,20.57
2023-04-02T15:22:27.229Z,20.61
2023-04-02T15:25:08.993Z,20.66
2023-04-02T15:27:53.745Z,20.71
2023-04-02T15:30:25.632Z,20.74
2023-04-02T15:32:57.090Z,20.77
2023-04-02T15:35:36.544Z,20.79
2023-04-02T15:38:15.957Z,20.80
2023-04-02T15:40:56.105Z,20.81
2023-04-02T15:43:30.361Z,20.81
2023-04-02T15:46:10.971Z,20.80
2023-04-02T15:49:09.230Z,20.80
2023-04-02T15:51:52.059Z,20.81
2023-04-02T15:54:34.267Z,20.82
2023-04-02T15:57:17.698Z,20.80
2023-04-02T16:00:09.142Z,20.79
2023-04-02T16:02:52.913Z,20.79
2023-04-02T16:05:33.652Z,20.80
2023-04-02T16:08:31.648Z,20.77
2023-04-02T16:11:04.902Z,20.76
2023-04-02T16:13:37.723Z,20.76
2023-04-02T16:16:08.611Z,20.75
2023-04-02T16:18:45.884Z,20.74
2023-04-02T16:21:18.498Z,20.71
2023-04-02T16:23:46.417Z,20.65
2023-04-02T16:26:27.446Z,20.61
2023-04-02T16:29:04.837Z,20.61
2023-04-02T16:31:40.658Z,20.62
2023-04-02T16:34:21.658Z,20.61
2023-04-02T16:36:59.558Z,20.61
2023-04-02T16:39:38.352Z,20.60
2023-04-02T16:42:18.554Z,20.61
2023-04-02T16:45:01.482Z,20.60
2023-04-02T16:47:47.902Z,20.60
2023-04-02T16:50:26.121Z,20.60
2023-04-02T16:53:00.012Z,20.59
2023-04-02T16:55:41.995Z,20.59
2023-04-02T16:58:27.582Z,20.59
2023-04-02T17:01:01.037Z,20.59
2023-04-02T17:03:52.184Z,20.57
2023-04-02T17:06:36.515Z,20.57
2023-04-02T17:09:15.619Z,20.56
2023-04-02T17:11:49.134Z,20.56
2023-04-02T17:14:25.799Z,20.55
2023-04-02T17:16:58.940Z,20.55
2023-04-02T17:19:29.441Z,20.55
2023-04-02T17:22:00.561Z,20.54
2023-04-02T17:24:31.920Z,20.54
2023-04-02T17:27:06.307Z,20.53
2023-04-02T17:29:38.800Z,20.53
2023-04-02T17:32:17.441Z,20.53
2023-04-02T17:34:45.396Z,20.53
2023-04-02T17:37:23.856Z,20.52
2023-04-02T17:40:03.301Z,20.52
2023-04-02T17:42:48.006Z,20.50
2023-04-02T17:45:23.728Z,20.51
2023-04-02T17:48:03.003Z,20.52
2023-04-02T17:50:39.597Z,20.51
2023-04-02T17:53:22.675Z,20.50
2023-04-02T17:56:03.262Z,20.43
2023-04-02T17:58:50.896Z,20.30
2023-04-02T18:01:27.303Z,20.34
2023-04-02T18:04:11.627Z,20.32
2023-04-02T18:06:48.277Z,20.33
2023-04-02T18:09:31.726Z,20.37
2023-04-02T18:12:07.896Z,20.38
2023-04-02T18:14:52.031Z,20.40
2023-04-02T18:17:32.045Z,20.39
2023-04-02T18:20:17.495Z,20.41
2023-04-02T18:22:50.643Z,20.41
2023-04-02T18:25:31.105Z,20.42
2023-04-02T18:28:14.897Z,20.43
2023-04-02T18:30:52.036Z,20.42
2023-04-02T18:34:00.932Z,20.44
2023-04-02T18:36:39.278Z,20.43
2023-04-02T18:39:16.614Z,20.44
2023-04-02T18:41:54.236Z,20.44
2023-04-02T18:44:55.138Z,20.44
2023-04-02T18:47:29.227Z,20.44
2023-04-02T18:50:13.180Z,20.45
2023-04-02T18:52:42.092Z,20.44
2023-04-02T18:55:16.485Z,20.44
2023-04-02T18:57:47.441Z,20.45
2023-04-02T19:00:26.478Z,20.46
2023-04-02T19:03:01.187Z,20.46
2023-04-02T19:05:40.724Z,20.47
2023-04-02T19:08:15.185Z,20.45
2023-04-02T19:10:45.441Z,20.46
2023-04-02T19:13:16.386Z,20.46
2023-04-02T19:16:35.356Z,20.47
2023-04-02T19:19:13.189Z,20.48
2023-04-02T19:21:56.180Z,20.46
2023-04-02T19:24:41.449Z,20.48
2023-04-02T19:27:19.765Z,20.49
2023-04-02T19:30:01.304Z,20.48
2023-04-02T19:32:38.637Z,20.49
2023-04-02T19:35:14.571Z,20.49
2023-04-02T19:37:51.413Z,20.48
2023-04-02T19:40:30.425Z,20.49
2023-04-02T19:42:59.077Z,20.49
2023-04-02T19:45:39.646Z,20.49
2023-04-02T19:48:12.953Z,20.48
2023-04-02T19:50:41.164Z,20.50
2023-04-02T19:53:10.687Z,20.49
2023-04-02T19:55:39.048Z,20.50
2023-04-02T19:58:18.798Z,20.50
2023-04-02T20:00:47.502Z,20.51
2023-04-02T20:03:15.591Z,20.51
2023-04-02T20:05:43.559Z,20.47
2023-04-02T20:08:13.138Z,20.48
2023-04-02T20:10:41.947Z,20.47
2023-04-02T20:13:10.167Z,20.42
2023-04-02T20:15:39.724Z,20.29
2023-04-02T20:18:07.969Z,20.21
2023-04-02T20:20:36.166Z,20.20
2023-04-02T20:23:04.408Z,20.29
2023-04-02T20:25:33.718Z,20.32
2023-04-02T20:28:03.826Z,20.33
2023-04-02T20:30:32.933Z,20.35
2023-04-02T20:33:01.976Z,20.35
2023-04-02T20:35:34.417Z,20.36
2023-04-02T20:38:03.091Z,20.39
2023-04-02T20:40:31.598Z,20.40
2023-04-02T20:43:00.900Z,20.40
2023-04-02T20:45:29.349Z,20.41
2023-04-02T20:47:57.795Z,20.41
2023-04-02T20:50:25.936Z,20.41
2023-04-02T20:52:53.992Z,20.41
2023-04-02T20:55:22.216Z,20.42
2023-04-02T20:57:53.038Z,20.41
2023-04-02T21:00:27.610Z,20.41
2023-04-02T21:02:57.656Z,20.41
2023-04-02T21:05:25.847Z,20.41
2023-04-02T21:07:53.826Z,20.40
2023-04-02T21:10:22.271Z,20.34
2023-04-02T21:12:50.560Z,20.39
2023-04-02T21:15:18.726Z,20.38
2023-04-02T21:17:48.070Z,20.38
2023-04-02T21:20:16.267Z,20.38
2023-04-02T21:22:44.221Z,20.37
2023-04-02T21:25:12.297Z,20.37
2023-04-02T21:27:43.220Z,20.36
2023-04-02T21:30:13.931Z,20.34
2023-04-02T21:32:41.936Z,20.36
2023-04-02T21:35:11.353Z,20.36
2023-04-02T21:37:39.272Z,20.35
2023-04-02T21:40:10.702Z,20.35
2023-04-02T21:42:38.658Z,20.34
2023-04-02T21:45:09.629Z,20.30
2023-04-02T21:47:37.573Z,20.32
2023-04-02T21:50:07.547Z,20.33
2023-04-02T21:52:37.061Z,20.33
2023-04-02T21:55:05.443Z,20.34
2023-04-02T21:57:33.444Z,20.34
2023-04-02T22:00:01.385Z,20.34
2023-04-02T22:02:29.385Z,20.34
2023-04-02T22:04:57.339Z,20.34
2023-04-02T22:07:25.403Z,20.33
2023-04-02T22:09:54.711Z,20.33
2023-04-02T22:12:22.632Z,20.34
2023-04-02T22:14:52.815Z,20.34
2023-04-02T22:17:20.827Z,20.35
2023-04-02T22:19:48.835Z,20.35
2023-04-02T22:22:16.714Z,20.37
2023-04-02T22:24:44.752Z,20.38
2023-04-02T22:27:14.116Z,20.39
2023-04-02T22:29:42.029Z,20.40
2023-04-02T22:32:10.040Z,20.40
2023-04-02T22:34:43.917Z,20.42
2023-04-02T22:37:11.833Z,20.41
2023-04-02T22:39:39.807Z,20.41
2023-04-02T22:42:07.708Z,20.41
2023-04-02T22:44:36.987Z,20.44
2023-04-02T22:47:05.104Z,20.45
2023-04-02T22:49:33.062Z,20.43
2023-04-02T22:52:05.931Z,20.42
2023-04-02T22:54:33.978Z,20.40
2023-04-02T22:57:02.067Z,20.40
2023-04-02T22:59:32.869Z,20.39
2023-04-02T23:02:02.297Z,20.39
2023-04-02T23:04:30.373Z,20.40
2023-04-02T23:06:58.319Z,20.36
2023-04-02T23:09:26.448Z,20.36
2023-04-02T23:11:54.431Z,20.37
2023-04-02T23:14:22.602Z,20.34
2023-04-02T23:16:50.624Z,20.34
2023-04-02T23:19:19.983Z,20.33
2023-04-02T23:21:47.901Z,20.33
2023-04-02T23:24:16.356Z,20.31
2023-04-02T23:26:44.337Z,20.30
2023-04-02T23:29:12.409Z,20.32
2023-04-02T23:31:42.831Z,20.30
2023-04-02T23:34:11.660Z,20.30
2023-04-02T23:36:41.212Z,20.28
2023-04-02T23:39:12.553Z,20.28
2023-04-02T23:41:42.641Z,20.27
2023-04-02T23:44:11.101Z,20.26
2023-04-02T23:46:39.072Z,20.26
2023-04-02T23:49:07.398Z,20.26
2023-04-02T23:51:37.905Z,20.24
2023-04-02T23:54:08.486Z,20.22
2023-04-02T23:56:36.421Z,20.22
2023-04-02T23:59:04.495Z,20.21
